Time;durP1;ratioP1;P1;durP2;ratioP2;P2;SDS_P1;SDS_P2;PMS_P1;PMS_P2;Temp;Humidity;BMP_temperature;BMP_pressure;BME280_temperature;BME280_humidity;BME280_pressure;Samples;Min_cycle;Max_cycle;Signal;HPM_P1;HPM_P2
2022/09/15 00:01:48;;;;;;;;;;;;;;;16.09;100.00;98927.28;5013147;28;19921;-75
2022/09/15 00:04:13;;;;;;;;;;;;;;;16.12;100.00;98926.13;5013484;28;19909;-75
2022/09/15 00:06:39;;;;;;;;;;;;;;;15.94;100.00;98930.81;5013433;28;19916;-75
2022/09/15 00:09:04;;;;;;;;;;;;;;;15.90;100.00;98918.13;5030077;28;19916;-75
2022/09/15 00:11:31;;;;;;;;;;;;;;;15.71;100.00;98915.47;5013208;28;19949;-75
2022/09/15 00:13:58;;;;;;;;;;;;;;;15.59;100.00;98917.84;5029811;28;19916;-74
2022/09/15 00:16:24;;;;;;;;;;;;;;;15.51;100.00;98908.34;5014860;28;19905;-74
2022/09/15 00:18:49;;;;;;;;;;;;;;;15.47;100.00;98910.78;5013238;28;20325;-73
2022/09/15 00:21:17;;;;;;;;;;;;;;;15.41;100.00;98895.78;5014395;28;19914;-73
2022/09/15 00:23:42;;;;;;;;;;;;;;;15.33;100.00;98886.28;5014643;28;19949;-74
2022/09/15 00:26:08;;;;;;;;;;;;;;;15.32;100.00;98886.84;5014472;28;19952;-74
2022/09/15 00:28:33;;;;;;;;;;;;;;;15.25;100.00;98891.97;5013009;28;20354;-75
2022/09/15 00:30:59;;;;;;;;;;;;;;;15.23;100.00;98888.09;5029864;28;19910;-74
2022/09/15 00:33:24;;;;;;;;;;;;;;;15.13;100.00;98881.25;5013033;28;19910;-74
2022/09/15 00:35:50;;;;;;;;;;;;;;;15.11;100.00;98878.97;5013073;28;19913;-73
2022/09/15 00:38:16;;;;;;;;;;;;;;;15.09;100.00;98884.50;5014502;28;20000;-75
2022/09/15 00:40:42;;;;;;;;;;;;;;;15.05;100.00;98880.41;5013071;28;20067;-74
2022/09/15 00:43:08;;;;;;;;;;;;;;;15.04;100.00;98878.88;5014500;28;19909;-74
2022/09/15 00:45:35;;;;;;;;;;;;;;;15.04;100.00;98885.41;5030036;28;19917;-74
2022/09/15 00:48:00;;;;;;;;;;;;;;;15.21;100.00;98885.00;5029419;28;20355;-74
2022/09/15 00:50:26;;;;;;;;;;;;;;;15.01;100.00;98886.53;5012858;28;19960;-74
2022/09/15 00:52:52;;;;;;;;;;;;;;;15.01;100.00;98888.63;5012978;28;20255;-75
2022/09/15 00:55:17;;;;;;;;;;;;;;;15.03;100.00;98888.81;5012865;28;19910;-75
2022/09/15 00:57:50;;;;;;;;;;;;;;;15.06;100.00;98887.72;5014117;28;19915;-74
2022/09/15 01:00:17;;;;;;;;;;;;;;;15.08;100.00;98882.94;5029471;28;19913;-73
2022/09/15 01:02:42;;;;;;;;;;;;;;;15.12;100.00;98891.25;5029184;28;20377;-74
2022/09/15 01:05:09;;;;;;;;;;;;;;;15.17;100.00;98893.97;5030425;28;19909;-74
2022/09/15 01:07:39;;;;;;;;;;;;;;;15.22;100.00;98889.41;5032822;28;20284;-75
2022/09/15 01:10:06;;;;;;;;;;;;;;;15.28;100.00;98892.94;5015524;28;20357;-76
2022/09/15 01:12:32;;;;;;;;;;;;;;;15.35;100.00;98888.59;5014653;28;19952;-75
2022/09/15 01:14:59;;;;;;;;;;;;;;;15.34;100.00;98890.69;5015771;28;19953;-75
2022/09/15 01:17:47;;;;;;;;;;;;;;;15.34;100.00;98887.81;5015823;28;19963;-75
2022/09/15 01:20:15;;;;;;;;;;;;;;;15.34;100.00;98889.91;5014212;28;19916;-75
2022/09/15 01:22:55;;;;;;;;;;;;;;;15.38;100.00;98884.59;5015718;28;19955;-74
2022/09/15 01:25:40;;;;;;;;;;;;;;;15.36;100.00;98893.81;5016350;28;19964;-74
2022/09/15 01:28:14;;;;;;;;;;;;;;;15.35;100.00;98889.38;5016185;28;19916;-75
2022/09/15 01:30:41;;;;;;;;;;;;;;;15.33;100.00;98873.97;5015567;28;20274;-75
2022/09/15 01:33:25;;;;;;;;;;;;;;;15.33;100.00;98871.88;5030690;28;19964;-75
2022/09/15 01:35:51;;;;;;;;;;;;;;;15.29;100.00;98865.69;5030725;28;19909;-75
2022/09/15 01:38:36;;;;;;;;;;;;;;;15.30;100.00;98883.75;5015494;28;19955;-75
2022/09/15 01:41:02;;;;;;;;;;;;;;;15.32;100.00;98884.72;5015579;28;19921;-75
2022/09/15 01:43:27;;;;;;;;;;;;;;;15.35;100.00;98882.84;5015631;28;19915;-75
2022/09/15 01:45:52;;;;;;;;;;;;;;;15.36;100.00;98888.03;5032631;28;19909;-74
2022/09/15 01:48:19;;;;;;;;;;;;;;;15.34;100.00;98881.28;5032911;28;19999;-73
2022/09/15 01:50:45;;;;;;;;;;;;;;;15.33;100.00;98874.75;5032723;28;19909;-73
2022/09/15 01:53:12;;;;;;;;;;;;;;;15.31;100.00;98886.06;5017243;28;20258;-74
2022/09/15 01:55:42;;;;;;;;;;;;;;;15.30;100.00;98884.53;5032351;28;19909;-74
2022/09/15 01:58:07;;;;;;;;;;;;;;;15.31;100.00;98886.06;5015713;28;19917;-74
2022/09/15 02:00:33;;;;;;;;;;;;;;;15.31;100.00;98879.53;5032080;28;19920;-74
2022/09/15 02:02:59;;;;;;;;;;;;;;;15.33;100.00;98885.50;5015451;28;19918;-74
2022/09/15 02:05:29;;;;;;;;;;;;;;;15.32;100.00;98889.72;5015674;28;20258;-75
2022/09/15 02:07:54;;;;;;;;;;;;;;;15.31;100.00;98888.19;5031781;28;19909;-75
2022/09/15 02:10:31;;;;;;;;;;;;;;;15.29;100.00;98885.84;5015549;28;19916;-75
2022/09/15 02:13:20;;;;;;;;;;;;;;;15.29;100.00;98888.72;5031961;28;19996;-75
2022/09/15 02:15:47;;;;;;;;;;;;;;;15.30;100.00;98901.03;5012083;28;19909;-75
2022/09/15 02:18:14;;;;;;;;;;;;;;;15.29;100.00;98894.50;5015423;28;19917;-74
2022/09/15 02:20:47;;;;;;;;;;;;;;;15.28;100.00;98904.44;5031879;28;19948;-75
2022/09/15 02:23:20;;;;;;;;;;;;;;;15.28;100.00;98916.75;5031678;28;19916;-75
2022/09/15 02:25:50;;;;;;;;;;;;;;;15.24;100.00;98922.06;5015218;28;19933;-74
2022/09/15 02:28:15;;;;;;;;;;;;;;;15.23;100.00;98926.28;5031618;28;20277;-74
2022/09/15 02:30:41;;;;;;;;;;;;;;;15.24;100.00;98927.81;5031759;28;19920;-74
2022/09/15 02:33:08;;;;;;;;;;;;;;;15.23;100.00;98920.53;5031748;28;19916;-76
2022/09/15 02:35:34;;;;;;;;;;;;;;;15.22;100.00;98927.59;5016299;28;20350;-74
2022/09/15 02:37:59;;;;;;;;;;;;;;;15.19;100.00;98925.06;5031588;28;19912;-74
2022/09/15 02:40:24;;;;;;;;;;;;;;;15.19;100.00;98919.31;5016104;28;19914;-74
2022/09/15 02:42:56;;;;;;;;;;;;;;;15.19;100.00;98925.06;5031670;28;19992;-75
2022/09/15 02:45:25;;;;;;;;;;;;;;;15.21;100.00;98920.31;5015001;28;20008;-74
2022/09/15 02:47:50;;;;;;;;;;;;;;;15.16;100.00;98923.31;5016365;28;19976;-73
2022/09/15 02:50:16;;;;;;;;;;;;;;;15.15;100.00;98911.03;5031198;28;20309;-74
2022/09/15 02:52:41;;;;;;;;;;;;;;;15.16;100.00;98923.31;5014726;28;19913;-74
2022/09/15 02:55:07;;;;;;;;;;;;;;;15.14;100.00;98928.84;5031300;28;19909;-74
2022/09/15 02:57:32;;;;;;;;;;;;;;;15.11;100.00;98927.09;5016199;28;19909;-74
2022/09/15 03:00:13;;;;;;;;;;;;;;;15.07;100.00;98921.69;5016044;28;19909;-74
2022/09/15 03:02:51;;;;;;;;;;;;;;;15.05;100.00;98915.72;5013974;28;20271;-75
2022/09/15 03:05:18;;;;;;;;;;;;;;;15.03;100.00;98915.50;5014714;28;19909;-74
2022/09/15 03:07:43;;;;;;;;;;;;;;;15.03;100.00;98920.47;5015654;28;19956;-74
2022/09/15 03:10:09;;;;;;;;;;;;;;;14.99;100.00;98917.94;5030068;28;19917;-74
2022/09/15 03:12:42;;;;;;;;;;;;;;;14.94;100.00;98921.72;5013160;28;19963;-73
2022/09/15 03:15:08;;;;;;;;;;;;;;;14.88;100.00;98928.91;5013079;28;19909;-74
2022/09/15 03:17:34;;;;;;;;;;;;;;;14.86;100.00;98931.59;5029554;28;19951;-75
2022/09/15 03:19:59;;;;;;;;;;;;;;;14.88;100.00;98932.56;5013033;28;19916;-75
2022/09/15 03:22:25;;;;;;;;;;;;;;;14.88;100.00;98940.44;5028703;28;19909;-74
2022/09/15 03:24:50;;;;;;;;;;;;;;;14.90;100.00;98941.44;5012090;28;20270;-74
2022/09/15 03:27:15;;;;;;;;;;;;;;;14.89;100.00;98948.50;5011505;28;19917;-73
2022/09/15 03:29:41;;;;;;;;;;;;;;;14.86;100.00;98954.59;5029251;28;19921;-74
2022/09/15 03:32:06;;;;;;;;;;;;;;;14.80;100.00;98958.38;5014668;28;19910;-74
2022/09/15 03:34:31;;;;;;;;;;;;;;;14.70;100.00;98968.78;5014892;28;20332;-75
2022/09/15 03:36:56;;;;;;;;;;;;;;;14.52;100.00;98978.28;5013177;28;19920;-74
2022/09/15 03:39:22;;;;;;;;;;;;;;;14.42;100.00;98986.56;5014581;28;19910;-74
2022/09/15 03:41:47;;;;;;;;;;;;;;;14.43;100.00;98996.72;5029442;28;19964;-74
2022/09/15 03:44:12;;;;;;;;;;;;;;;14.41;100.00;98996.53;5028152;28;19909;-75
2022/09/15 03:46:37;;;;;;;;;;;;;;;14.37;100.00;98996.06;5011819;28;19949;-74
2022/09/15 03:49:03;;;;;;;;;;;;;;;14.36;100.00;99003.16;5012872;28;19909;-74
2022/09/15 03:51:28;;;;;;;;;;;;;;;14.34;100.00;99020.16;5029716;28;20361;-74
2022/09/15 03:53:54;;;;;;;;;;;;;;;14.32;100.00;99017.06;5028394;28;19910;-75
2022/09/15 03:56:22;;;;;;;;;;;;;;;14.27;100.00;99029.44;5013513;28;19909;-76
2022/09/15 03:58:47;;;;;;;;;;;;;;;14.27;100.00;99026.56;5013604;28;19909;-76
2022/09/15 04:01:12;;;;;;;;;;;;;;;14.29;100.00;99034.63;5013108;28;19925;-74
2022/09/15 04:03:38;;;;;;;;;;;;;;;14.29;100.00;99034.63;5029766;28;19948;-74
2022/09/15 04:06:03;;;;;;;;;;;;;;;14.22;100.00;99029.53;5013862;28;19909;-74
2022/09/15 04:08:28;;;;;;;;;;;;;;;14.21;100.00;99023.00;5011271;28;20000;-74
2022/09/15 04:10:54;;;;;;;;;;;;;;;14.19;100.00;99019.91;5012619;28;19916;-74
2022/09/15 04:13:19;;;;;;;;;;;;;;;14.20;100.00;99030.09;5011267;28;19917;-75
2022/09/15 04:15:45;;;;;;;;;;;;;;;14.19;100.00;99033.50;5027639;28;19909;-74
2022/09/15 04:18:10;;;;;;;;;;;;;;;14.21;100.00;99040.25;5027791;28;19909;-76
2022/09/15 04:20:37;;;;;;;;;;;;;;;14.22;100.00;99049.66;5012376;28;19999;-75
2022/09/15 04:23:02;;;;;;;;;;;;;;;14.20;100.00;99040.78;5011408;28;19924;-75
2022/09/15 04:25:28;;;;;;;;;;;;;;;14.18;100.00;99046.34;5011700;28;20274;-76
2022/09/15 04:27:53;;;;;;;;;;;;;;;14.19;100.00;99057.25;5012407;28;19916;-75
2022/09/15 04:30:19;;;;;;;;;;;;;;;14.20;100.00;99055.94;5027252;28;19910;-76
2022/09/15 04:32:44;;;;;;;;;;;;;;;14.18;100.00;99052.81;5027369;28;19910;-76
2022/09/15 04:35:09;;;;;;;;;;;;;;;14.19;100.00;99047.84;5012372;28;20045;-76
2022/09/15 04:37:35;;;;;;;;;;;;;;;14.20;100.00;99049.41;5010658;28;20044;-76
2022/09/15 04:40:00;;;;;;;;;;;;;;;14.15;100.00;99056.81;5010933;28;19916;-75
2022/09/15 04:42:26;;;;;;;;;;;;;;;14.14;100.00;99057.34;5013814;28;20424;-78
2022/09/15 04:44:51;;;;;;;;;;;;;;;14.04;100.00;99054.13;5029227;28;20294;-77
2022/09/15 04:47:16;;;;;;;;;;;;;;;13.99;100.00;99064.38;5014593;28;19916;-77
2022/09/15 04:49:42;;;;;;;;;;;;;;;13.98;100.00;99067.81;5012718;28;20376;-80
2022/09/15 04:52:07;;;;;;;;;;;;;;;13.98;100.00;99077.19;5012914;28;19963;-83
2022/09/15 04:54:33;;;;;;;;;;;;;;;13.97;100.00;99075.66;5030273;28;19910;-84
2022/09/15 04:56:58;;;;;;;;;;;;;;;13.98;100.00;99082.19;5029689;28;20309;-80
2022/09/15 04:59:25;;;;;;;;;;;;;;;13.92;100.00;99088.00;5013685;28;19995;-79
2022/09/15 05:01:53;;;;;;;;;;;;;;;13.84;100.00;99092.03;5012141;28;19922;-81
2022/09/15 05:04:20;;;;;;;;;;;;;;;13.73;100.00;99090.13;5013163;28;19909;-81
2022/09/15 05:06:45;;;;;;;;;;;;;;;13.63;100.00;99099.69;5014495;28;19913;-83
2022/09/15 05:09:11;;;;;;;;;;;;;;;13.58;100.00;99098.44;5013954;28;19916;-83
2022/09/15 05:11:45;;;;;;;;;;;;;;;13.65;100.00;99099.91;5030986;28;20267;-81
2022/09/15 05:14:11;;;;;;;;;;;;;;;13.63;100.00;99099.69;5017920;28;20386;-82
2022/09/15 05:16:37;;;;;;;;;;;;;;;13.68;100.00;99101.69;5015109;28;19956;-81
2022/09/15 05:19:03;;;;;;;;;;;;;;;13.76;100.00;99094.78;5016932;28;19996;-79
2022/09/15 05:21:33;;;;;;;;;;;;;;;13.81;100.00;99096.78;5015118;28;19959;-80
2022/09/15 05:23:59;;;;;;;;;;;;;;;13.75;100.00;99093.22;5031055;28;19963;-82
2022/09/15 05:26:25;;;;;;;;;;;;;;;13.81;100.00;99085.31;5030167;28;19988;-81
2022/09/15 05:28:51;;;;;;;;;;;;;;;13.78;100.00;99097.88;5012628;28;19965;-82
2022/09/15 05:31:23;;;;;;;;;;;;;;;13.83;100.00;99102.00;5031503;28;19914;-80
2022/09/15 05:33:49;;;;;;;;;;;;;;;13.82;100.00;99106.97;5014221;28;19917;-80
2022/09/15 05:36:14;;;;;;;;;;;;;;;13.76;100.00;99120.63;5027513;28;19910;-81
2022/09/15 05:38:40;;;;;;;;;;;;;;;13.67;100.00;99115.28;5011242;28;19918;-79
2022/09/15 05:41:15;;;;;;;;;;;;;;;13.74;100.00;99123.25;5011267;28;19921;-80
2022/09/15 05:43:41;;;;;;;;;;;;;;;13.74;100.00;99113.88;5028506;28;20358;-80
2022/09/15 05:46:06;;;;;;;;;;;;;;;13.85;100.00;99105.09;5012215;28;19915;-81
2022/09/15 05:48:31;;;;;;;;;;;;;;;14.02;100.00;99101.97;5013740;28;19913;-80
2022/09/15 05:50:57;;;;;;;;;;;;;;;14.14;100.00;99094.69;5013279;28;19917;-80
2022/09/15 05:53:23;;;;;;;;;;;;;;;14.40;100.00;99101.31;5017696;28;20362;-80
2022/09/15 05:55:48;;;;;;;;;;;;;;;14.65;100.00;99110.56;5033945;28;19967;-80
2022/09/15 05:58:13;;;;;;;;;;;;;;;14.80;100.00;99110.03;5020224;28;19909;-81
2022/09/15 06:00:40;;;;;;;;;;;;;;;14.89;100.00;99111.69;5019238;28;19913;-81
2022/09/15 06:03:05;;;;;;;;;;;;;;;14.96;100.00;99120.44;5020223;28;19917;-81
2022/09/15 06:05:31;;;;;;;;;;;;;;;14.84;100.00;99125.63;5037200;28;20004;-82
2022/09/15 06:07:56;;;;;;;;;;;;;;;14.65;100.00;99129.91;5019986;28;19917;-82
2022/09/15 06:10:23;;;;;;;;;;;;;;;14.67;100.00;99125.19;5020908;28;20341;-82
2022/09/15 06:12:48;;;;;;;;;;;;;;;14.98;100.00;99122.75;5022060;28;19943;-82
2022/09/15 06:15:14;;;;;;;;;;;;;;;14.89;100.00;99117.44;5020349;28;19909;-80
2022/09/15 06:17:39;;;;;;;;;;;;;;;15.15;100.00;99120.34;5016836;28;19910;-80
2022/09/15 06:20:06;;;;;;;;;;;;;;;15.50;100.00;99121.97;5016632;28;19916;-79
2022/09/15 06:22:31;;;;;;;;;;;;;;;16.83;100.00;99120.88;5034716;28;19917;-80
2022/09/15 06:24:57;;;;;;;;;;;;;;;17.25;100.00;99136.75;5017634;28;20011;-80
2022/09/15 06:27:22;;;;;;;;;;;;;;;17.01;100.00;99131.41;5039261;28;19909;-79
2022/09/15 06:29:47;;;;;;;;;;;;;;;17.01;100.00;99137.16;5036644;28;19909;-78
2022/09/15 06:32:13;;;;;;;;;;;;;;;17.06;100.00;99141.25;5036164;28;20027;-78
2022/09/15 06:34:38;;;;;;;;;;;;;;;17.38;100.00;99144.53;5036577;28;19913;-79
2022/09/15 06:37:03;;;;;;;;;;;;;;;17.65;100.00;99145.84;5040101;28;19909;-80
2022/09/15 06:39:28;;;;;;;;;;;;;;;17.72;100.00;99139.34;5039951;28;20338;-78
2022/09/15 06:41:54;;;;;;;;;;;;;;;17.69;100.00;99133.91;5037494;28;20274;-81
2022/09/15 06:44:19;;;;;;;;;;;;;;;18.42;100.00;99138.22;5036086;28;19963;-83
2022/09/15 06:46:44;;;;;;;;;;;;;;;18.94;100.00;99139.59;5035896;28;19916;-80
2022/09/15 06:49:10;;;;;;;;;;;;;;;19.39;100.00;99136.66;5061899;28;19909;-81
2022/09/15 06:51:35;;;;;;;;;;;;;;;19.46;100.00;99149.59;5063018;28;19909;-81
2022/09/15 06:54:01;;;;;;;;;;;;;;;20.08;100.00;99151.69;5039950;28;19909;-81
2022/09/15 06:56:27;;;;;;;;;;;;;;;20.67;100.00;99160.59;5041228;28;19917;-82
2022/09/15 06:58:52;;;;;;;;;;;;;;;20.55;100.00;99155.84;5057080;28;20258;-82
2022/09/15 07:01:22;;;;;;;;;;;;;;;20.23;100.00;99150.84;5041874;28;20365;-82
2022/09/15 07:03:47;;;;;;;;;;;;;;;19.41;100.00;99165.06;5072564;28;20063;-82
2022/09/15 07:06:12;;;;;;;;;;;;;;;18.53;100.00;99167.53;5040658;28;19909;-80
2022/09/15 07:08:38;;;;;;;;;;;;;;;18.28;100.00;99158.59;5057619;28;19908;-81
2022/09/15 07:11:04;;;;;;;;;;;;;;;18.17;100.00;99167.66;5056267;28;19909;-81
2022/09/15 07:13:29;;;;;;;;;;;;;;;18.15;100.00;99166.66;5056490;28;19909;-82
2022/09/15 07:15:55;;;;;;;;;;;;;;;18.90;100.00;99180.50;5055999;28;19908;-81
2022/09/15 07:18:21;;;;;;;;;;;;;;;20.63;100.00;99165.28;5054471;28;20001;-80
2022/09/15 07:20:46;;;;;;;;;;;;;;;23.00;100.00;99170.72;5057084;28;19916;-82
2022/09/15 07:23:12;;;;;;;;;;;;;;;24.27;85.13;99182.72;5055220;28;20373;-82
2022/09/15 07:25:37;;;;;;;;;;;;;;;24.64;77.72;99178.19;5056710;28;19908;-80
2022/09/15 07:28:02;;;;;;;;;;;;;;;23.54;72.55;99186.66;5056895;28;20422;-80
2022/09/15 07:30:27;;;;;;;;;;;;;;;22.71;79.84;99188.84;5053776;28;20258;-80
2022/09/15 07:32:53;;;;;;;;;;;;;;;23.14;83.64;99192.25;5035690;28;19999;-78
2022/09/15 07:35:20;;;;;;;;;;;;;;;24.76;77.21;99199.53;5055408;28;20250;-78
2022/09/15 07:37:47;;;;;;;;;;;;;;;25.27;70.67;99198.13;5037133;28;20372;-78
2022/09/15 07:40:12;;;;;;;;;;;;;;;23.94;67.54;99208.69;5053421;28;19951;-78
2022/09/15 07:42:40;;;;;;;;;;;;;;;24.40;67.00;99214.38;5053945;28;19944;-78
2022/09/15 07:45:06;;;;;;;;;;;;;;;24.92;63.92;99218.28;5068449;28;19909;-79
2022/09/15 07:47:31;;;;;;;;;;;;;;;24.60;66.61;99219.56;5052844;28;19915;-79
2022/09/15 07:49:56;;;;;;;;;;;;;;;23.47;68.48;99218.88;5034566;28;19935;-79
2022/09/15 07:52:22;;;;;;;;;;;;;;;22.90;71.82;99223.16;5050902;28;19912;-79
2022/09/15 07:54:47;;;;;;;;;;;;;;;22.51;75.86;99217.09;5051054;28;20369;-78
2022/09/15 07:57:12;;;;;;;;;;;;;;;23.06;76.90;99226.59;5052337;28;20741;-79
2022/09/15 07:59:38;;;;;;;;;;;;;;;23.24;75.29;99228.81;5051909;28;19909;-79
2022/09/15 08:02:03;;;;;;;;;;;;;;;23.40;73.64;99232.22;5055623;28;19924;-77
2022/09/15 08:04:28;;;;;;;;;;;;;;;23.60;74.29;99238.91;5054205;28;19908;-79
2022/09/15 08:06:53;;;;;;;;;;;;;;;23.69;69.10;99244.00;5052793;28;19908;-78
2022/09/15 08:09:19;;;;;;;;;;;;;;;23.91;69.89;99244.94;5052967;28;20001;-79
2022/09/15 08:11:44;;;;;;;;;;;;;;;24.19;69.17;99247.13;5054407;28;19916;-78
2022/09/15 08:14:09;;;;;;;;;;;;;;;24.16;67.82;99248.31;5052680;28;20014;-79
2022/09/15 08:16:35;;;;;;;;;;;;;;;23.16;70.68;99247.81;5053055;28;19913;-79
2022/09/15 08:19:00;;;;;;;;;;;;;;;22.27;72.66;99255.84;5052743;28;19909;-78
2022/09/15 08:21:27;;;;;;;;;;;;;;;21.87;76.27;99252.38;5052585;28;20007;-79
2022/09/15 08:23:54;;;;;;;;;;;;;;;21.71;81.12;99245.97;5052878;28;19915;-79
2022/09/15 08:26:20;;;;;;;;;;;;;;;21.85;80.72;99247.16;5052864;28;19916;-79
2022/09/15 08:28:45;;;;;;;;;;;;;;;21.67;80.78;99240.56;5052848;28;19913;-79
2022/09/15 08:31:11;;;;;;;;;;;;;;;21.85;83.87;99241.34;5036071;28;20349;-78
2022/09/15 08:33:37;;;;;;;;;;;;;;;21.78;82.53;99233.47;5053862;28;19986;-79
2022/09/15 08:36:03;;;;;;;;;;;;;;;22.40;80.40;99243.06;5053621;28;20353;-78
2022/09/15 08:38:31;;;;;;;;;;;;;;;22.93;76.17;99230.66;5052508;28;19927;-79
2022/09/15 08:40:58;;;;;;;;;;;;;;;23.35;72.13;99236.22;5035628;28;19917;-79
2022/09/15 08:43:24;;;;;;;;;;;;;;;23.22;70.61;99236.59;5052332;28;19908;-79
2022/09/15 08:45:51;;;;;;;;;;;;;;;23.26;70.53;99234.03;5052432;28;19931;-78
2022/09/15 08:48:16;;;;;;;;;;;;;;;23.03;71.03;99234.38;5052377;28;19970;-78
2022/09/15 08:50:45;;;;;;;;;;;;;;;22.45;73.52;99215.81;5058530;28;20365;-77
2022/09/15 08:53:11;;;;;;;;;;;;;;;22.00;75.56;99215.00;5061019;28;19963;-76
2022/09/15 08:55:47;;;;;;;;;;;;;;;21.46;74.85;99207.44;5058254;28;20047;-76
2022/09/15 08:58:16;;;;;;;;;;;;;;;21.04;77.28;99211.06;5052294;28;20368;-77
2022/09/15 09:00:43;;;;;;;;;;;;;;;21.22;80.34;99206.84;5052079;28;19920;-76
2022/09/15 09:03:18;;;;;;;;;;;;;;;21.29;81.18;99205.22;5052414;28;20293;-84
2022/09/15 09:06:07;;;;;;;;;;;;;;;21.30;79.37;99200.97;5054011;28;19909;-82
2022/09/15 09:08:51;;;;;;;;;;;;;;;21.90;79.73;99204.63;5052646;28;20296;-81
2022/09/15 09:11:32;;;;;;;;;;;;;;;22.78;79.10;99195.91;5055228;28;19920;-81
2022/09/15 09:14:16;;;;;;;;;;;;;;;23.34;72.77;99199.69;5055065;28;20371;-78
2022/09/15 09:16:45;;;;;;;;;;;;;;;23.23;69.62;99206.84;5053653;28;19908;-82
2022/09/15 09:19:32;;;;;;;;;;;;;;;22.71;68.61;99191.75;5053095;28;19909;-81
2022/09/15 09:22:04;;;;;;;;;;;;;;;21.87;71.78;99192.06;5052366;28;19956;-80
2022/09/15 09:24:41;;;;;;;;;;;;;;;21.32;73.65;99209.09;5068865;28;19909;-79
2022/09/15 09:27:14;;;;;;;;;;;;;;;21.08;79.25;99208.53;5056246;28;19916;-79
2022/09/15 09:29:41;;;;;;;;;;;;;;;20.75;84.00;99201.22;5056181;28;20277;-79
2022/09/15 09:32:33;;;;;;;;;;;;;;;20.60;82.41;99210.78;5056367;28;20003;-79
2022/09/15 09:35:04;;;;;;;;;;;;;;;20.04;85.00;99189.03;5032797;28;19908;-79
2022/09/15 09:37:30;;;;;;;;;;;;;;;20.25;83.44;99195.28;5056852;28;19909;-78
2022/09/15 09:39:55;;;;;;;;;;;;;;;20.09;86.19;99196.75;5039068;28;19954;-79
2022/09/15 09:42:22;;;;;;;;;;;;;;;20.01;87.13;99198.13;5055523;28;20349;-78
2022/09/15 09:44:47;;;;;;;;;;;;;;;19.83;85.84;99197.19;5053054;28;19999;-78
2022/09/15 09:47:13;;;;;;;;;;;;;;;19.48;88.38;99213.50;5031768;28;19994;-79
2022/09/15 09:49:39;;;;;;;;;;;;;;;19.38;91.22;99222.03;5034361;28;19956;-79
2022/09/15 09:52:09;;;;;;;;;;;;;;;19.22;93.48;99216.81;5015362;28;19916;-79
2022/09/15 09:54:35;;;;;;;;;;;;;;;19.14;94.99;99211.03;5014166;28;19909;-79
2022/09/15 09:57:13;;;;;;;;;;;;;;;19.11;96.39;99221.66;5017552;28;19916;-79
2022/09/15 09:59:48;;;;;;;;;;;;;;;18.96;99.88;99215.84;5016793;28;19936;-80
2022/09/15 10:02:18;;;;;;;;;;;;;;;19.13;100.00;99209.47;4999207;28;20289;-79
2022/09/15 10:04:44;;;;;;;;;;;;;;;19.24;100.00;99202.53;5026903;28;20266;-80
2022/09/15 10:07:10;;;;;;;;;;;;;;;19.53;99.17;99212.53;5023851;28;19972;-79
2022/09/15 10:09:36;;;;;;;;;;;;;;;19.76;98.08;99190.06;5023045;28;19960;-78
2022/09/15 10:12:02;;;;;;;;;;;;;;;19.89;92.89;99189.06;4999150;28;20369;-81
2022/09/15 10:14:32;;;;;;;;;;;;;;;20.04;95.01;99188.25;5022601;28;19917;-79
2022/09/15 10:16:57;;;;;;;;;;;;;;;20.20;92.53;99181.78;4999095;28;19916;-79
2022/09/15 10:19:22;;;;;;;;;;;;;;;20.61;88.34;99180.38;5017046;28;19913;-80
2022/09/15 10:21:48;;;;;;;;;;;;;;;20.76;84.43;99180.31;5015077;28;19936;-80
2022/09/15 10:24:43;;;;;;;;;;;;;;;21.03;83.81;99186.31;5015107;28;19909;-79
2022/09/15 10:27:15;;;;;;;;;;;;;;;21.04;85.63;99187.06;5010902;28;20000;-80
2022/09/15 10:29:40;;;;;;;;;;;;;;;20.93;82.54;99191.22;5016691;28;20416;-79
2022/09/15 10:32:27;;;;;;;;;;;;;;;20.44;81.69;99191.94;5015116;28;19909;-79
2022/09/15 10:35:00;;;;;;;;;;;;;;;20.22;85.71;99187.78;5015431;28;20259;-83
2022/09/15 10:37:32;;;;;;;;;;;;;;;20.29;86.90;99184.06;5018207;28;19909;-82
2022/09/15 10:39:59;;;;;;;;;;;;;;;20.45;85.53;99178.19;5017106;28;20012;-83
2022/09/15 10:42:44;;;;;;;;;;;;;;;20.32;84.33;99182.13;5016335;28;19925;-84
2022/09/15 10:45:29;;;;;;;;;;;;;;;20.56;83.22;99177.72;5016247;28;20281;-83
2022/09/15 10:48:12;;;;;;;;;;;;;;;20.70;79.63;99176.84;5016818;28;19963;-83
2022/09/15 10:50:38;;;;;;;;;;;;;;;20.75;80.83;99178.75;5017791;28;19932;-83
2022/09/15 10:53:12;;;;;;;;;;;;;;;20.52;81.76;99183.16;5017748;28;19998;-82
2022/09/15 10:55:37;;;;;;;;;;;;;;;20.67;82.62;99172.22;5016939;28;19916;-83
2022/09/15 10:58:03;;;;;;;;;;;;;;;20.68;85.98;99158.47;5018609;28;19910;-83
2022/09/15 11:00:33;;;;;;;;;;;;;;;21.08;84.19;99170.75;5018172;28;19910;-83
2022/09/15 11:02:58;;;;;;;;;;;;;;;21.01;81.00;99165.00;5016102;28;19983;-82
2022/09/15 11:05:23;;;;;;;;;;;;;;;21.42;81.28;99166.38;5017463;28;20377;-83
2022/09/15 11:07:48;;;;;;;;;;;;;;;21.44;82.68;99173.13;5016646;28;19913;-83
2022/09/15 11:10:32;;;;;;;;;;;;;;;21.53;78.04;99178.28;5017016;28;19944;-81
2022/09/15 11:13:16;;;;;;;;;;;;;;;21.18;75.33;99177.47;5017021;28;20350;-82
2022/09/15 11:15:42;;;;;;;;;;;;;;;20.70;78.31;99168.16;4999446;28;19999;-83
2022/09/15 11:18:17;;;;;;;;;;;;;;;20.79;80.31;99167.50;5015811;28;19937;-83
2022/09/15 11:20:52;;;;;;;;;;;;;;;20.69;80.51;99163.69;5016634;28;20358;-81
2022/09/15 11:23:19;;;;;;;;;;;;;;;20.55;81.20;99164.53;5016012;28;19909;-82
2022/09/15 11:25:46;;;;;;;;;;;;;;;20.73;79.21;99169.13;4999407;28;19921;-82
2022/09/15 11:28:14;;;;;;;;;;;;;;;21.19;77.06;99149.91;4998622;28;20003;-81
2022/09/15 11:30:50;;;;;;;;;;;;;;;21.39;75.79;99155.91;5014379;28;19910;-81
2022/09/15 11:33:20;;;;;;;;;;;;;;;21.80;72.74;99166.75;5015007;28;20349;-82
2022/09/15 11:35:47;;;;;;;;;;;;;;;22.02;71.70;99162.03;5014439;28;19909;-80
2022/09/15 11:38:17;;;;;;;;;;;;;;;21.76;72.07;99165.63;5014366;28;19971;-80
2022/09/15 11:41:06;;;;;;;;;;;;;;;21.50;71.98;99162.03;5013773;28;19913;-79
2022/09/15 11:43:32;;;;;;;;;;;;;;;21.16;72.06;99156.16;5014767;28;19979;-81
2022/09/15 11:45:59;;;;;;;;;;;;;;;20.75;73.64;99158.44;5013554;28;20361;-81
2022/09/15 11:48:32;;;;;;;;;;;;;;;20.68;75.03;99162.16;4996785;28;19909;-79
2022/09/15 11:50:58;;;;;;;;;;;;;;;20.50;78.21;99154.72;5014150;28;19916;-82
2022/09/15 11:53:31;;;;;;;;;;;;;;;20.28;78.91;99150.59;5013934;28;19936;-83
2022/09/15 11:56:09;;;;;;;;;;;;;;;20.29;80.26;99148.47;5013683;28;19936;-83
2022/09/15 11:59:03;;;;;;;;;;;;;;;19.98;82.16;99139.16;5015220;28;19916;-83
2022/09/15 12:01:32;;;;;;;;;;;;;;;20.15;81.56;99147.22;5010844;28;19917;-83
2022/09/15 12:04:00;;;;;;;;;;;;;;;19.80;82.04;99135.38;5015933;28;20101;-82
2022/09/15 12:06:29;;;;;;;;;;;;;;;19.43;84.54;99139.16;5001762;28;20032;-81
2022/09/15 12:08:59;;;;;;;;;;;;;;;19.16;89.66;99138.06;5037209;28;19925;-82
2022/09/15 12:11:26;;;;;;;;;;;;;;;19.16;91.51;99138.06;5018840;28;20380;-75
2022/09/15 12:13:52;;;;;;;;;;;;;;;19.32;93.67;99140.31;5020011;28;19913;-76
2022/09/15 12:16:19;;;;;;;;;;;;;;;19.44;92.06;99141.47;4997188;28;19914;-78
2022/09/15 12:18:50;;;;;;;;;;;;;;;19.59;93.23;99137.75;5012501;28;20043;-78
2022/09/15 12:21:34;;;;;;;;;;;;;;;19.70;93.78;99139.47;5012975;28;20016;-79
2022/09/15 12:24:19;;;;;;;;;;;;;;;19.80;92.47;99137.50;5012783;28;20407;-78
2022/09/15 12:26:45;;;;;;;;;;;;;;;19.70;92.52;99136.56;5014316;28;19921;-77
2022/09/15 12:29:20;;;;;;;;;;;;;;;19.65;90.28;99131.75;5012764;28;19909;-78
2022/09/15 12:31:45;;;;;;;;;;;;;;;19.53;89.86;99131.38;5014096;28;19967;-77
2022/09/15 12:34:20;;;;;;;;;;;;;;;19.38;90.24;99128.53;5011521;28;20366;-77
2022/09/15 12:36:50;;;;;;;;;;;;;;;19.27;93.96;99128.94;5011818;28;19963;-78
2022/09/15 12:39:18;;;;;;;;;;;;;;;19.29;92.87;99118.31;5010855;28;19909;-78
2022/09/15 12:41:47;;;;;;;;;;;;;;;19.19;95.53;99126.06;5010505;28;20384;-77
2022/09/15 12:44:14;;;;;;;;;;;;;;;19.24;94.96;99130.13;5012190;28;20389;-79
2022/09/15 12:46:40;;;;;;;;;;;;;;;19.17;95.74;99119.31;4994544;28;20278;-77